• Join FlightAware (Why Join?)
  • Login
  • US Flag 
09:28AM EDT


 

Airport Tracker/Info


-or-


 

Live Flight TrackerFlight Track Log ✈ USC105 ✈ 08-May-2013 ✈ KDPA - KYIP

Flight Track Log - Related Links

Times and Time Zones

All times are in EDT time to prevent confusion due to time zone crossing. See the USC105 flight status page for this flight to view local times or setup timezone preferences in your user account.

Time Position Orientation Groundspeed Altitude Reporting Facility
EDT Latitude Longitude Course Direction KTS MPH feet Rate Location/Type
05:19AM 41.8667 -88.2833 160° South 121 139 2,500  Level Chicago TRACON
05:20AM 41.8333 -88.2667 160° South 135 155 3,500 960 Climbing Chicago TRACON
05:21AM 41.8247 -88.2431 116° Southeast 133 153 4,000 360 Climbing Chicago Center
05:22AM 41.8042 -88.1908 118° Southeast 152 175 4,100 420 Climbing Chicago Center
05:23AM 41.7975 -88.1331 99° East 160 184 4,900 840 Climbing Chicago Center
05:24AM 41.7975 -88.0806 90° East 142 163 5,900 540 Climbing Chicago Center
05:25AM 41.7981 -88.0225 89° East 150 173 6,000  Climbing Chicago Center
05:26AM 41.8072 -87.9567 79° East 174 200 6,000 120 Level Chicago Center
05:27AM 41.8133 -87.8906 83° East 179 206 6,300 600 Climbing Chicago Center
05:27AM 41.8167 -87.8667 79° East 165 190 6,800 540 Climbing Chicago TRACON
05:28AM 41.8167 -87.8000 90° East 183 211 7,000 60 Climbing Chicago TRACON
05:29AM 41.8333 -87.7333 71° East 188 216 7,000  Level Chicago TRACON
05:30AM 41.8333 -87.6667 90° East 190 219 7,000  Level Chicago TRACON
05:31AM 41.8444 -87.6231 71° East 189 217 7,000  Level Chicago Center
05:32AM 41.8525 -87.5533 81° East 188 216 7,000  Level Chicago Center
05:33AM 41.8589 -87.4850 83° East 185 213 7,000  Level Chicago Center
05:34AM 41.8678 -87.4144 80° East 191 220 7,000  Level Chicago Center
05:35AM 41.8753 -87.3453 82° East 188 216 7,000  Level Chicago Center
05:36AM 41.8844 -87.2625 82° East 187 215 7,000  Level Chicago Center
05:37AM 41.8928 -87.1939 81° East 187 215 7,000  Level Chicago Center
05:38AM 41.8994 -87.1256 83° East 185 213 7,000  Level Chicago Center
05:39AM 41.9072 -87.0569 81° East 186 214 7,000  Level Chicago Center
05:40AM 41.9150 -86.9894 81° East 185 213 7,000  Level Chicago Center
05:41AM 41.9222 -86.9208 82° East 185 213 7,000  Level Chicago Center
05:42AM 41.9297 -86.8528 82° East 185 213 7,000  Level Chicago Center
05:43AM 41.9361 -86.7850 83° East 184 212 7,000  Level Chicago Center
05:44AM 41.9433 -86.7172 82° East 184 212 7,000  Level Chicago Center
05:45AM 41.9503 -86.6581 81° East 184 212 7,000  Level Chicago Center
05:46AM 41.9583 -86.5775 82° East 182 209 7,000  Level Chicago Center
05:47AM 41.9653 -86.5103 82° East 183 211 7,000  Level Chicago Center
05:48AM 41.9725 -86.4431 82° East 182 209 7,000  Level Chicago Center
05:49AM 41.9792 -86.3756 82° East 183 211 7,000  Level Chicago Center
05:50AM 41.9864 -86.3072 82° East 184 212 7,000  Level Chicago Center
05:51AM 41.9933 -86.2383 82° East 186 214 7,000  Level Chicago Center
05:52AM 42.0006 -86.1703 82° East 185 213 7,000  Level Chicago Center
05:53AM 42.0081 -86.1011 82° East 188 216 7,000  Level Chicago Center
05:54AM 42.0147 -86.0317 83° East 188 216 7,000  Level Chicago Center
05:55AM 42.0217 -85.9631 82° East 186 214 7,000  Level Chicago Center
05:56AM 42.0281 -85.8950 83° East 183 211 7,000  Level Chicago Center
05:57AM 42.0347 -85.8275 82° East 182 209 7,000  Level Chicago Center
05:58AM 42.0417 -85.7592 82° East 184 212 7,000  Level Chicago Center
05:59AM 42.0489 -85.6906 82° East 185 213 7,000  Level Chicago Center
06:00AM 42.0556 -85.6211 83° East 186 214 7,100  Climbing Chicago Center
06:02AM 42.0656 -85.5112 83° East  Level FlightAware Approximate
06:09AM 42.1073 -85.0397 83° East  Level FlightAware Approximate
06:10AM 42.1131 -84.9723 83° East  Level FlightAware Approximate
06:11AM 42.1189 -84.9049 83° East  Level FlightAware Approximate
06:12AM 42.1246 -84.8374 83° East  Level FlightAware Approximate
06:13AM 42.1303 -84.7700 83° East  Level FlightAware Approximate
06:14AM 42.1361 -84.7026 83° East  Level FlightAware Approximate
06:15AM 42.1420 -84.6351 83° East  Level FlightAware Approximate
06:16AM 42.1455 -84.5674 86° East  Level FlightAware Approximate
06:17AM 42.1491 -84.4997 86° East  Level FlightAware Approximate
06:18AM 42.1526 -84.4320 86° East  Level FlightAware Approximate
06:18AM 42.1717 -84.3406 90° East 184 212 7,000  Level Cleveland Center
06:19AM 42.1560 -84.3642 86° East  Level FlightAware Approximate
06:19AM 42.1728 -84.2986 88° East 182 209 7,000  Level Cleveland Center
06:20AM 42.1594 -84.2965 86° East  Level FlightAware Approximate
06:20AM 42.1794 -84.2289 83° East 182 209 7,100  Level Cleveland Center
06:21AM 42.1628 -84.2288 86° East  Level FlightAware Approximate
06:21AM 42.1856 -84.1592 83° East 179 206 7,100  Level Cleveland Center
06:22AM 42.1661 -84.1610 86° East  Level FlightAware Approximate
06:22AM 42.1894 -84.1061 84° East 178 205 7,100  Level Cleveland Center
06:23AM 42.1549 -84.0950 103° East  Level FlightAware Approximate
06:23AM 42.1981 -84.0253 82° East 192 221 6,600  Level Cleveland Center
06:24AM 42.1649 -84.0287 90° East  Level Estimated
06:24AM 42.2022 -83.9525 86° East 193 222 5,900  Level Cleveland Center
06:25AM 42.2086 -83.8828 83° East 190 219 5,300 -660 Descending Cleveland Center
06:26AM 42.2169 -83.8075 81° East 190 219 4,600 -900 Descending Cleveland Center
06:27AM 42.2022 -83.7394 106° East 196 226 3,600 -960 Descending Cleveland Center
06:28AM 42.1831 -83.6714 111° Southeast 194 223 2,700 -840 Descending Cleveland Center
06:29AM 42.1869 -83.6069 85° East 161 185 1,900 -720 Descending Cleveland Center
06:30AM 42.2194 -83.5636 45° Northeast 144 166 1,300 -600 Descending Cleveland Center
06:32AM 42.2333 -83.5167 66° East  Level FlightAware Approximate
06:39AM 42.2393 -83.5310 66° East  Level Estimated
06:40AM 42.2393 -83.5310 66° East  Level Estimated